sensor_id;sensor_type;location;lat;lon;timestamp;pressure;altitude;pressure_sealevel;temperature;humidity
53715;BME280;39608;55.630;37.864;2024-02-21T00:03:49;100360.09;;;-7.57;68.51
53715;BME280;39608;55.630;37.864;2024-02-21T00:08:51;100345.59;;;-7.61;68.12
53715;BME280;39608;55.630;37.864;2024-02-21T00:13:55;100343.75;;;-7.69;68.32
53715;BME280;39608;55.630;37.864;2024-02-21T00:18:57;100345.78;;;-7.81;68.59
53715;BME280;39608;55.630;37.864;2024-02-21T00:23:59;100341.16;;;-7.87;68.57
53715;BME280;39608;55.630;37.864;2024-02-21T00:29:03;100335.16;;;-7.71;68.59
53715;BME280;39608;55.630;37.864;2024-02-21T00:34:05;100327.69;;;-7.58;68.16
53715;BME280;39608;55.630;37.864;2024-02-21T00:39:07;100325.28;;;-7.43;68.03
53715;BME280;39608;55.630;37.864;2024-02-21T00:44:11;100327.47;;;-7.30;68.27
53715;BME280;39608;55.630;37.864;2024-02-21T00:49:13;100324.72;;;-7.20;68.43
53715;BME280;39608;55.630;37.864;2024-02-21T00:54:15;100322.94;;;-7.11;68.27
53715;BME280;39608;55.630;37.864;2024-02-21T00:59:19;100311.94;;;-6.98;68.05
53715;BME280;39608;55.630;37.864;2024-02-21T01:04:21;100308.69;;;-6.92;67.92
53715;BME280;39608;55.630;37.864;2024-02-21T01:09:25;100298.97;;;-6.83;67.92
53715;BME280;39608;55.630;37.864;2024-02-21T01:14:28;100287.91;;;-6.79;67.77
53715;BME280;39608;55.630;37.864;2024-02-21T01:19:30;100293.72;;;-6.75;67.74
53715;BME280;39608;55.630;37.864;2024-02-21T01:24:32;100287.59;;;-6.76;67.67
53715;BME280;39608;55.630;37.864;2024-02-21T01:29:35;100284.31;;;-6.69;67.80
53715;BME280;39608;55.630;37.864;2024-02-21T01:34:37;100278.88;;;-6.68;67.72
53715;BME280;39608;55.630;37.864;2024-02-21T01:39:39;100280.19;;;-6.64;68.06
53715;BME280;39608;55.630;37.864;2024-02-21T01:44:43;100273.78;;;-6.61;67.80
53715;BME280;39608;55.630;37.864;2024-02-21T01:49:45;100268.16;;;-6.58;67.80
53715;BME280;39608;55.630;37.864;2024-02-21T01:54:47;100259.59;;;-6.60;67.41
53715;BME280;39608;55.630;37.864;2024-02-21T01:59:51;100254.81;;;-6.40;67.98
53715;BME280;39608;55.630;37.864;2024-02-21T02:04:54;100250.84;;;-6.36;67.34
53715;BME280;39608;55.630;37.864;2024-02-21T02:09:56;100256.44;;;-6.31;67.65
53715;BME280;39608;55.630;37.864;2024-02-21T02:15:00;100257.44;;;-6.24;67.52
53715;BME280;39608;55.630;37.864;2024-02-21T02:20:07;100258.59;;;-6.26;67.49
53715;BME280;39608;55.630;37.864;2024-02-21T02:25:10;100245.06;;;-6.23;67.46
53715;BME280;39608;55.630;37.864;2024-02-21T02:30:13;100254.47;;;-6.12;67.25
53715;BME280;39608;55.630;37.864;2024-02-21T02:35:15;100254.78;;;-6.07;67.39
53715;BME280;39608;55.630;37.864;2024-02-21T02:40:18;100256.09;;;-6.03;67.30
53715;BME280;39608;55.630;37.864;2024-02-21T02:45:21;100255.28;;;-6.04;67.18
53715;BME280;39608;55.630;37.864;2024-02-21T02:50:24;100262.50;;;-5.97;67.28
53715;BME280;39608;55.630;37.864;2024-02-21T02:55:27;100258.34;;;-5.92;67.50
53715;BME280;39608;55.630;37.864;2024-02-21T03:00:29;100250.56;;;-5.85;67.68
53715;BME280;39608;55.630;37.864;2024-02-21T03:05:31;100252.22;;;-5.84;67.29
53715;BME280;39608;55.630;37.864;2024-02-21T03:10:35;100244.81;;;-5.80;67.16
53715;BME280;39608;55.630;37.864;2024-02-21T03:15:37;100240.69;;;-5.83;67.08
53715;BME280;39608;55.630;37.864;2024-02-21T03:20:39;100245.09;;;-5.75;67.28
53715;BME280;39608;55.630;37.864;2024-02-21T03:25:43;100239.78;;;-5.67;67.17
53715;BME280;39608;55.630;37.864;2024-02-21T03:30:45;100236.78;;;-5.64;67.28
53715;BME280;39608;55.630;37.864;2024-02-21T03:35:47;100233.97;;;-5.62;67.18
53715;BME280;39608;55.630;37.864;2024-02-21T03:40:51;100221.97;;;-5.65;66.93
53715;BME280;39608;55.630;37.864;2024-02-21T03:45:53;100227.53;;;-5.60;67.15
53715;BME280;39608;55.630;37.864;2024-02-21T03:50:55;100231.66;;;-5.57;66.96
53715;BME280;39608;55.630;37.864;2024-02-21T03:56:01;100232.50;;;-5.57;66.74
53715;BME280;39608;55.630;37.864;2024-02-21T04:01:04;100235.59;;;-5.53;66.92
53715;BME280;39608;55.630;37.864;2024-02-21T04:06:06;100244.22;;;-5.51;66.68
53715;BME280;39608;55.630;37.864;2024-02-21T04:11:10;100249.13;;;-5.48;66.72
53715;BME280;39608;55.630;37.864;2024-02-21T04:16:12;100239.38;;;-5.47;66.80
53715;BME280;39608;55.630;37.864;2024-02-21T04:21:14;100234.25;;;-5.41;66.71
53715;BME280;39608;55.630;37.864;2024-02-21T04:26:19;100242.94;;;-5.32;66.96
53715;BME280;39608;55.630;37.864;2024-02-21T04:31:21;100235.69;;;-5.30;66.95
53715;BME280;39608;55.630;37.864;2024-02-21T04:36:23;100235.00;;;-5.32;66.83
53715;BME280;39608;55.630;37.864;2024-02-21T04:41:26;100238.59;;;-5.25;66.91
53715;BME280;39608;55.630;37.864;2024-02-21T04:46:28;100236.97;;;-5.26;66.83
53715;BME280;39608;55.630;37.864;2024-02-21T04:51:30;100241.06;;;-5.23;66.80
53715;BME280;39608;55.630;37.864;2024-02-21T04:56:34;100228.53;;;-5.21;66.96
53715;BME280;39608;55.630;37.864;2024-02-21T05:01:36;100243.84;;;-5.17;66.88
53715;BME280;39608;55.630;37.864;2024-02-21T05:06:38;100233.63;;;-5.20;66.75
53715;BME280;39608;55.630;37.864;2024-02-21T05:11:42;100228.00;;;-5.17;66.51
53715;BME280;39608;55.630;37.864;2024-02-21T05:16:44;100238.22;;;-5.13;66.66
53715;BME280;39608;55.630;37.864;2024-02-21T05:21:46;100243.63;;;-5.07;66.46
53715;BME280;39608;55.630;37.864;2024-02-21T05:26:49;100241.13;;;-5.00;66.48
53715;BME280;39608;55.630;37.864;2024-02-21T05:31:55;100244.53;;;-4.91;66.51
53715;BME280;39608;55.630;37.864;2024-02-21T05:36:58;100239.91;;;-4.89;66.45
53715;BME280;39608;55.630;37.864;2024-02-21T05:42:02;100244.84;;;-4.86;66.32
53715;BME280;39608;55.630;37.864;2024-02-21T05:47:04;100245.47;;;-4.84;66.05
53715;BME280;39608;55.630;37.864;2024-02-21T05:52:12;100243.31;;;-4.81;65.93
53715;BME280;39608;55.630;37.864;2024-02-21T05:57:16;100245.09;;;-4.73;65.86
53715;BME280;39608;55.630;37.864;2024-02-21T06:02:18;100247.31;;;-4.61;65.82
53715;BME280;39608;55.630;37.864;2024-02-21T06:07:20;100234.91;;;-4.61;65.88
53715;BME280;39608;55.630;37.864;2024-02-21T06:12:24;100247.47;;;-4.40;65.85
53715;BME280;39608;55.630;37.864;2024-02-21T06:17:26;100241.81;;;-4.37;65.63
53715;BME280;39608;55.630;37.864;2024-02-21T06:22:28;100231.31;;;-4.30;65.26
53715;BME280;39608;55.630;37.864;2024-02-21T06:27:32;100244.06;;;-4.10;65.08
53715;BME280;39608;55.630;37.864;2024-02-21T06:32:34;100235.38;;;-4.04;64.91
53715;BME280;39608;55.630;37.864;2024-02-21T06:37:36;100238.06;;;-3.89;64.59
53715;BME280;39608;55.630;37.864;2024-02-21T06:42:40;100236.06;;;-3.87;64.17
53715;BME280;39608;55.630;37.864;2024-02-21T06:47:42;100228.84;;;-3.79;64.14
53715;BME280;39608;55.630;37.864;2024-02-21T06:52:45;100241.81;;;-3.69;63.89
53715;BME280;39608;55.630;37.864;2024-02-21T06:57:48;100252.31;;;-3.61;63.63
53715;BME280;39608;55.630;37.864;2024-02-21T07:02:50;100237.31;;;-3.68;62.82
53715;BME280;39608;55.630;37.864;2024-02-21T07:07:52;100245.75;;;-3.65;63.01
53715;BME280;39608;55.630;37.864;2024-02-21T07:12:55;100234.47;;;-3.52;62.77
53715;BME280;39608;55.630;37.864;2024-02-21T07:17:58;100233.00;;;-3.39;62.61
53715;BME280;39608;55.630;37.864;2024-02-21T07:23:00;100235.66;;;-3.24;62.61
53715;BME280;39608;55.630;37.864;2024-02-21T07:28:04;100234.50;;;-3.15;62.27
53715;BME280;39608;55.630;37.864;2024-02-21T07:33:06;100227.53;;;-2.80;62.20
53715;BME280;39608;55.630;37.864;2024-02-21T07:38:08;100221.41;;;-2.59;61.35
53715;BME280;39608;55.630;37.864;2024-02-21T07:43:14;100219.84;;;-2.25;61.35
53715;BME280;39608;55.630;37.864;2024-02-21T07:48:16;100231.47;;;-1.97;60.82
53715;BME280;39608;55.630;37.864;2024-02-21T07:53:20;100226.25;;;-1.84;60.37
53715;BME280;39608;55.630;37.864;2024-02-21T07:58:23;100222.50;;;-1.55;59.65
53715;BME280;39608;55.630;37.864;2024-02-21T08:03:25;100219.00;;;-1.07;60.22
53715;BME280;39608;55.630;37.864;2024-02-21T08:08:27;100215.34;;;-0.99;58.94
53715;BME280;39608;55.630;37.864;2024-02-21T08:13:31;100215.38;;;-0.79;58.11
53715;BME280;39608;55.630;37.864;2024-02-21T08:18:33;100216.00;;;-0.70;57.93
53715;BME280;39608;55.630;37.864;2024-02-21T08:23:37;100211.50;;;-0.76;56.77
53715;BME280;39608;55.630;37.864;2024-02-21T08:28:40;100201.19;;;-1.13;56.94
53715;BME280;39608;55.630;37.864;2024-02-21T08:33:42;100214.97;;;-1.51;57.63
53715;BME280;39608;55.630;37.864;2024-02-21T08:38:44;100227.50;;;-1.38;57.70
53715;BME280;39608;55.630;37.864;2024-02-21T08:43:48;100216.03;;;-1.32;57.17
53715;BME280;39608;55.630;37.864;2024-02-21T08:48:50;100209.13;;;-1.19;57.35
53715;BME280;39608;55.630;37.864;2024-02-21T08:53:52;100206.75;;;-0.88;56.46
53715;BME280;39608;55.630;37.864;2024-02-21T08:58:57;100199.84;;;-0.42;55.35
53715;BME280;39608;55.630;37.864;2024-02-21T09:03:59;100209.84;;;-0.17;55.09
53715;BME280;39608;55.630;37.864;2024-02-21T09:09:01;100204.31;;;-0.09;55.99
53715;BME280;39608;55.630;37.864;2024-02-21T09:14:04;100198.09;;;0.17;55.12
53715;BME280;39608;55.630;37.864;2024-02-21T09:19:07;100195.31;;;0.58;53.70
53715;BME280;39608;55.630;37.864;2024-02-21T09:24:11;100191.59;;;0.59;54.12
53715;BME280;39608;55.630;37.864;2024-02-21T09:29:15;100189.22;;;0.37;53.11
53715;BME280;39608;55.630;37.864;2024-02-21T09:34:17;100176.75;;;0.24;53.34
53715;BME280;39608;55.630;37.864;2024-02-21T09:39:19;100187.44;;;0.17;53.44
53715;BME280;39608;55.630;37.864;2024-02-21T09:44:24;100174.97;;;0.57;53.76
53715;BME280;39608;55.630;37.864;2024-02-21T09:49:31;100177.88;;;0.48;53.48
53715;BME280;39608;55.630;37.864;2024-02-21T09:54:34;100179.63;;;0.23;53.70
53715;BME280;39608;55.630;37.864;2024-02-21T09:59:39;100162.44;;;0.12;53.68
53715;BME280;39608;55.630;37.864;2024-02-21T10:04:42;100166.34;;;0.03;53.71
53715;BME280;39608;55.630;37.864;2024-02-21T10:09:45;100169.28;;;-0.32;53.59
53715;BME280;39608;55.630;37.864;2024-02-21T10:15:00;100140.75;;;-0.25;54.28
53715;BME280;39608;55.630;37.864;2024-02-21T10:20:09;100144.22;;;-0.11;54.51
53715;BME280;39608;55.630;37.864;2024-02-21T10:25:12;100150.13;;;0.11;53.96
53715;BME280;39608;55.630;37.864;2024-02-21T10:30:15;100150.50;;;0.21;53.95
53715;BME280;39608;55.630;37.864;2024-02-21T10:35:26;100158.50;;;0.21;53.73
53715;BME280;39608;55.630;37.864;2024-02-21T10:40:29;100162.28;;;-0.07;53.90
53715;BME280;39608;55.630;37.864;2024-02-21T10:45:34;100153.66;;;-0.09;53.90
53715;BME280;39608;55.630;37.864;2024-02-21T10:50:47;100153.41;;;0.06;54.58
53715;BME280;39608;55.630;37.864;2024-02-21T10:55:58;100158.59;;;-0.12;53.99
53715;BME280;39608;55.630;37.864;2024-02-21T11:01:05;100151.63;;;-0.13;54.13
53715;BME280;39608;55.630;37.864;2024-02-21T11:06:09;100156.09;;;-0.01;54.17
53715;BME280;39608;55.630;37.864;2024-02-21T11:11:12;100134.03;;;-0.41;54.51
53715;BME280;39608;55.630;37.864;2024-02-21T11:16:23;100136.69;;;-0.48;54.67
53715;BME280;39608;55.630;37.864;2024-02-21T11:21:33;100146.13;;;-0.45;54.78
53715;BME280;39608;55.630;37.864;2024-02-21T11:26:37;100130.75;;;-0.57;54.89
53715;BME280;39608;55.630;37.864;2024-02-21T11:31:42;100133.44;;;-0.83;55.47
53715;BME280;39608;55.630;37.864;2024-02-21T11:36:47;100133.44;;;-0.83;56.03
53715;BME280;39608;55.630;37.864;2024-02-21T11:42:01;100131.59;;;-0.83;56.00
53715;BME280;39608;55.630;37.864;2024-02-21T11:47:05;100120.94;;;-1.03;56.15
53715;BME280;39608;55.630;37.864;2024-02-21T11:52:08;100111.91;;;-1.09;56.26
53715;BME280;39608;55.630;37.864;2024-02-21T11:57:10;100122.13;;;-1.26;56.39
53715;BME280;39608;55.630;37.864;2024-02-21T12:02:17;100118.00;;;-1.42;56.76
53715;BME280;39608;55.630;37.864;2024-02-21T12:07:21;100119.19;;;-1.58;57.52
53715;BME280;39608;55.630;37.864;2024-02-21T12:12:23;100119.59;;;-1.54;57.71
53715;BME280;39608;55.630;37.864;2024-02-21T12:17:27;100121.25;;;-1.46;57.32
53715;BME280;39608;55.630;37.864;2024-02-21T12:22:29;100125.19;;;-1.35;56.90
53715;BME280;39608;55.630;37.864;2024-02-21T12:27:33;100105.72;;;-1.43;57.80
53715;BME280;39608;55.630;37.864;2024-02-21T12:32:36;100099.16;;;-1.53;57.55
53715;BME280;39608;55.630;37.864;2024-02-21T12:37:38;100091.72;;;-1.72;58.08
53715;BME280;39608;55.630;37.864;2024-02-21T12:42:40;100103.81;;;-1.69;57.87
53715;BME280;39608;55.630;37.864;2024-02-21T12:47:44;100095.22;;;-1.64;57.80
53715;BME280;39608;55.630;37.864;2024-02-21T12:52:46;100091.50;;;-1.77;58.45
53715;BME280;39608;55.630;37.864;2024-02-21T12:57:48;100097.34;;;-1.95;58.80
53715;BME280;39608;55.630;37.864;2024-02-21T13:02:52;100099.72;;;-2.13;58.68
53715;BME280;39608;55.630;37.864;2024-02-21T13:07:54;100067.97;;;-2.28;59.45
53715;BME280;39608;55.630;37.864;2024-02-21T13:12:56;100092.13;;;-2.23;59.26
53715;BME280;39608;55.630;37.864;2024-02-21T13:18:10;100089.25;;;-2.21;59.08
53715;BME280;39608;55.630;37.864;2024-02-21T13:23:12;100090.41;;;-2.37;59.58
53715;BME280;39608;55.630;37.864;2024-02-21T13:28:14;100099.97;;;-2.43;59.91
53715;BME280;39608;55.630;37.864;2024-02-21T13:33:20;100108.16;;;-2.45;59.87
53715;BME280;39608;55.630;37.864;2024-02-21T13:38:22;100097.03;;;-2.55;60.62
53715;BME280;39608;55.630;37.864;2024-02-21T13:43:24;100099.41;;;-2.67;60.67
53715;BME280;39608;55.630;37.864;2024-02-21T13:48:28;100110.66;;;-2.65;60.89
53715;BME280;39608;55.630;37.864;2024-02-21T13:53:33;100097.56;;;-2.66;60.90
53715;BME280;39608;55.630;37.864;2024-02-21T13:58:35;100094.50;;;-2.63;60.63
53715;BME280;39608;55.630;37.864;2024-02-21T14:03:39;100109.38;;;-2.69;61.41
53715;BME280;39608;55.630;37.864;2024-02-21T14:08:41;100109.50;;;-2.84;61.30
53715;BME280;39608;55.630;37.864;2024-02-21T14:13:43;100105.00;;;-2.83;60.88
53715;BME280;39608;55.630;37.864;2024-02-21T14:18:47;100106.84;;;-2.84;61.20
53715;BME280;39608;55.630;37.864;2024-02-21T14:23:49;100120.06;;;-2.90;61.61
53715;BME280;39608;55.630;37.864;2024-02-21T14:28:51;100106.91;;;-2.99;61.45
53715;BME280;39608;55.630;37.864;2024-02-21T14:33:54;100111.44;;;-2.93;61.62
53715;BME280;39608;55.630;37.864;2024-02-21T14:38:56;100118.78;;;-2.95;62.07
53715;BME280;39608;55.630;37.864;2024-02-21T14:43:59;100110.97;;;-3.03;62.29
53715;BME280;39608;55.630;37.864;2024-02-21T14:49:03;100110.34;;;-3.05;62.28
53715;BME280;39608;55.630;37.864;2024-02-21T14:54:05;100107.03;;;-3.07;62.23
53715;BME280;39608;55.630;37.864;2024-02-21T14:59:09;100113.94;;;-3.13;62.54
53715;BME280;39608;55.630;37.864;2024-02-21T15:04:12;100104.84;;;-3.25;62.33
53715;BME280;39608;55.630;37.864;2024-02-21T15:09:14;100121.13;;;-3.28;62.85
53715;BME280;39608;55.630;37.864;2024-02-21T15:14:16;100117.22;;;-3.32;63.38
53715;BME280;39608;55.630;37.864;2024-02-21T15:19:19;100123.53;;;-3.33;63.41
53715;BME280;39608;55.630;37.864;2024-02-21T15:24:21;100125.28;;;-3.40;63.69
53715;BME280;39608;55.630;37.864;2024-02-21T15:29:24;100119.78;;;-3.39;64.20
53715;BME280;39608;55.630;37.864;2024-02-21T15:34:27;100111.84;;;-3.39;63.99
53715;BME280;39608;55.630;37.864;2024-02-21T15:39:29;100120.38;;;-3.44;63.95
53715;BME280;39608;55.630;37.864;2024-02-21T15:44:31;100111.34;;;-3.49;64.75
53715;BME280;39608;55.630;37.864;2024-02-21T15:49:35;100115.81;;;-3.50;64.41
53715;BME280;39608;55.630;37.864;2024-02-21T15:54:37;100117.38;;;-3.55;64.94
53715;BME280;39608;55.630;37.864;2024-02-21T15:59:39;100109.97;;;-3.60;65.25
53715;BME280;39608;55.630;37.864;2024-02-21T16:04:42;100109.72;;;-3.65;65.68
53715;BME280;39608;55.630;37.864;2024-02-21T16:09:44;100109.56;;;-3.64;65.76
53715;BME280;39608;55.630;37.864;2024-02-21T16:14:47;100105.44;;;-3.66;65.75
53715;BME280;39608;55.630;37.864;2024-02-21T16:19:51;100092.44;;;-3.61;65.61
53715;BME280;39608;55.630;37.864;2024-02-21T16:24:53;100089.97;;;-3.63;66.13
53715;BME280;39608;55.630;37.864;2024-02-21T16:29:55;100090.81;;;-3.62;65.94
53715;BME280;39608;55.630;37.864;2024-02-21T16:34:59;100083.66;;;-3.62;66.09
53715;BME280;39608;55.630;37.864;2024-02-21T16:40:01;100075.22;;;-3.72;66.17
53715;BME280;39608;55.630;37.864;2024-02-21T16:45:07;100080.75;;;-3.67;66.48
53715;BME280;39608;55.630;37.864;2024-02-21T16:50:11;100071.22;;;-3.61;65.89
53715;BME280;39608;55.630;37.864;2024-02-21T16:55:15;100061.00;;;-3.64;65.88
53715;BME280;39608;55.630;37.864;2024-02-21T17:00:19;100070.16;;;-3.67;65.77
53715;BME280;39608;55.630;37.864;2024-02-21T17:05:24;100069.16;;;-3.66;65.92
53715;BME280;39608;55.630;37.864;2024-02-21T17:10:27;100064.22;;;-3.69;66.34
53715;BME280;39608;55.630;37.864;2024-02-21T17:15:29;100068.44;;;-3.74;66.11
53715;BME280;39608;55.630;37.864;2024-02-21T17:20:32;100068.44;;;-3.74;66.43
53715;BME280;39608;55.630;37.864;2024-02-21T17:25:34;100063.16;;;-3.74;66.68
53715;BME280;39608;55.630;37.864;2024-02-21T17:30:36;100067.59;;;-3.75;66.29
53715;BME280;39608;55.630;37.864;2024-02-21T17:35:41;100057.38;;;-3.78;66.58
53715;BME280;39608;55.630;37.864;2024-02-21T17:40:48;100064.97;;;-3.75;66.39
53715;BME280;39608;55.630;37.864;2024-02-21T17:45:51;100067.38;;;-3.80;66.77
53715;BME280;39608;55.630;37.864;2024-02-21T17:50:58;100058.03;;;-3.76;66.44
53715;BME280;39608;55.630;37.864;2024-02-21T17:56:00;100055.78;;;-3.79;66.73
53715;BME280;39608;55.630;37.864;2024-02-21T18:01:02;100060.41;;;-3.81;67.08
53715;BME280;39608;55.630;37.864;2024-02-21T18:06:06;100048.81;;;-3.80;66.90
53715;BME280;39608;55.630;37.864;2024-02-21T18:11:09;100053.47;;;-3.82;67.04
53715;BME280;39608;55.630;37.864;2024-02-21T18:16:12;100043.50;;;-3.80;66.85
53715;BME280;39608;55.630;37.864;2024-02-21T18:21:15;100043.72;;;-3.82;67.09
53715;BME280;39608;55.630;37.864;2024-02-21T18:26:18;100034.22;;;-3.91;67.52
53715;BME280;39608;55.630;37.864;2024-02-21T18:31:20;100036.50;;;-3.88;67.30
53715;BME280;39608;55.630;37.864;2024-02-21T18:36:23;100034.31;;;-3.84;67.72
53715;BME280;39608;55.630;37.864;2024-02-21T18:41:25;100030.19;;;-3.87;67.70
53715;BME280;39608;55.630;37.864;2024-02-21T18:46:27;100023.25;;;-3.88;67.98
53715;BME280;39608;55.630;37.864;2024-02-21T18:51:31;100013.47;;;-3.87;67.68
53715;BME280;39608;55.630;37.864;2024-02-21T18:56:33;100018.41;;;-3.84;67.77
53715;BME280;39608;55.630;37.864;2024-02-21T19:01:36;100012.72;;;-3.81;68.07
53715;BME280;39608;55.630;37.864;2024-02-21T19:06:39;100020.94;;;-3.76;67.73
53715;BME280;39608;55.630;37.864;2024-02-21T19:11:43;100015.19;;;-3.80;67.77
53715;BME280;39608;55.630;37.864;2024-02-21T19:16:45;100013.72;;;-3.82;68.20
53715;BME280;39608;55.630;37.864;2024-02-21T19:21:49;100021.31;;;-3.79;68.08
53715;BME280;39608;55.630;37.864;2024-02-21T19:26:51;100002.50;;;-3.84;67.89
53715;BME280;39608;55.630;37.864;2024-02-21T19:31:53;100010.25;;;-3.83;68.28
53715;BME280;39608;55.630;37.864;2024-02-21T19:36:57;100009.69;;;-3.78;68.11
53715;BME280;39608;55.630;37.864;2024-02-21T19:41:59;100008.59;;;-3.84;68.26
53715;BME280;39608;55.630;37.864;2024-02-21T19:47:01;100009.44;;;-3.83;68.18
53715;BME280;39608;55.630;37.864;2024-02-21T19:52:06;100008.88;;;-3.79;68.37
53715;BME280;39608;55.630;37.864;2024-02-21T19:57:08;100008.22;;;-3.81;68.31
53715;BME280;39608;55.630;37.864;2024-02-21T20:02:10;100012.09;;;-3.83;68.45
53715;BME280;39608;55.630;37.864;2024-02-21T20:07:13;100006.41;;;-3.80;68.45
53715;BME280;39608;55.630;37.864;2024-02-21T20:12:16;99998.84;;;-3.83;68.40
53715;BME280;39608;55.630;37.864;2024-02-21T20:17:18;100001.50;;;-3.83;68.68
53715;BME280;39608;55.630;37.864;2024-02-21T20:22:21;99985.59;;;-3.83;68.48
53715;BME280;39608;55.630;37.864;2024-02-21T20:27:23;99988.69;;;-3.80;68.86
53715;BME280;39608;55.630;37.864;2024-02-21T20:32:25;99984.56;;;-3.82;68.77
53715;BME280;39608;55.630;37.864;2024-02-21T20:37:29;99981.91;;;-3.82;68.47
53715;BME280;39608;55.630;37.864;2024-02-21T20:42:31;99978.66;;;-3.84;68.82
53715;BME280;39608;55.630;37.864;2024-02-21T20:47:33;99975.34;;;-3.86;68.65
53715;BME280;39608;55.630;37.864;2024-02-21T20:52:38;99970.13;;;-3.80;68.60
53715;BME280;39608;55.630;37.864;2024-02-21T20:57:40;99971.97;;;-3.80;68.71
53715;BME280;39608;55.630;37.864;2024-02-21T21:02:42;99971.38;;;-3.75;68.90
53715;BME280;39608;55.630;37.864;2024-02-21T21:07:46;99964.25;;;-3.75;68.52
53715;BME280;39608;55.630;37.864;2024-02-21T21:12:48;99965.34;;;-3.69;68.59
53715;BME280;39608;55.630;37.864;2024-02-21T21:17:50;99966.53;;;-3.72;68.67
53715;BME280;39608;55.630;37.864;2024-02-21T21:22:54;99971.25;;;-3.67;68.75
53715;BME280;39608;55.630;37.864;2024-02-21T21:27:57;99970.88;;;-3.64;68.94
53715;BME280;39608;55.630;37.864;2024-02-21T21:32:59;99975.56;;;-3.66;68.76
53715;BME280;39608;55.630;37.864;2024-02-21T21:38:03;99972.78;;;-3.58;69.14
53715;BME280;39608;55.630;37.864;2024-02-21T21:43:05;99964.56;;;-3.63;68.76
53715;BME280;39608;55.630;37.864;2024-02-21T21:48:07;99949.47;;;-3.63;68.61
53715;BME280;39608;55.630;37.864;2024-02-21T21:53:11;99955.44;;;-3.61;68.82
53715;BME280;39608;55.630;37.864;2024-02-21T21:58:13;99957.00;;;-3.66;68.83
53715;BME280;39608;55.630;37.864;2024-02-21T22:03:15;99958.06;;;-3.61;69.06
53715;BME280;39608;55.630;37.864;2024-02-21T22:08:20;99957.31;;;-3.54;69.16
53715;BME280;39608;55.630;37.864;2024-02-21T22:13:22;99939.75;;;-3.55;68.98
53715;BME280;39608;55.630;37.864;2024-02-21T22:18:23;99942.03;;;-3.52;68.99
53715;BME280;39608;55.630;37.864;2024-02-21T22:23:27;99945.75;;;-3.47;68.84
53715;BME280;39608;55.630;37.864;2024-02-21T22:28:29;99941.00;;;-3.51;68.78
53715;BME280;39608;55.630;37.864;2024-02-21T22:33:31;99932.44;;;-3.53;69.15
53715;BME280;39608;55.630;37.864;2024-02-21T22:38:35;99931.31;;;-3.44;68.94
53715;BME280;39608;55.630;37.864;2024-02-21T22:43:37;99928.66;;;-3.44;69.21
53715;BME280;39608;55.630;37.864;2024-02-21T22:48:39;99938.47;;;-3.38;69.01
53715;BME280;39608;55.630;37.864;2024-02-21T22:53:42;99922.50;;;-3.45;69.32
53715;BME280;39608;55.630;37.864;2024-02-21T22:58:44;99916.41;;;-3.45;69.14
53715;BME280;39608;55.630;37.864;2024-02-21T23:03:46;99926.59;;;-3.42;69.36
53715;BME280;39608;55.630;37.864;2024-02-21T23:08:50;99915.56;;;-3.46;69.09
53715;BME280;39608;55.630;37.864;2024-02-21T23:13:52;99915.19;;;-3.42;69.32
53715;BME280;39608;55.630;37.864;2024-02-21T23:18:54;99915.56;;;-3.46;69.82
53715;BME280;39608;55.630;37.864;2024-02-21T23:23:58;99910.25;;;-3.46;69.81
53715;BME280;39608;55.630;37.864;2024-02-21T23:29:00;99907.59;;;-3.46;69.96
53715;BME280;39608;55.630;37.864;2024-02-21T23:34:02;99901.69;;;-3.48;69.87
53715;BME280;39608;55.630;37.864;2024-02-21T23:39:06;99887.81;;;-3.50;69.71
53715;BME280;39608;55.630;37.864;2024-02-21T23:44:09;99894.34;;;-3.46;69.84
53715;BME280;39608;55.630;37.864;2024-02-21T23:49:12;99902.13;;;-3.44;70.08
53715;BME280;39608;55.630;37.864;2024-02-21T23:54:15;99902.16;;;-3.37;70.33
53715;BME280;39608;55.630;37.864;2024-02-21T23:59:17;99893.34;;;-3.45;70.26
